Time;durP1;ratioP1;P1;durP2;ratioP2;P2;SDS_P1;SDS_P2;PMS_P1;PMS_P2;Temp;Humidity;BMP_temperature;BMP_pressure;BME280_temperature;BME280_humidity;BME280_pressure;Samples;Min_cycle;Max_cycle;Signal;HPM_P1;HPM_P2
2021/09/11 00:02:26;;;;;;;4.25;3.38;;;16.70;60.90;;;16.56;45.32;95063.44;5015296;28;20200;-78
2021/09/11 00:04:54;;;;;;;3.85;3.38;;;16.70;60.90;;;16.52;45.11;95063.06;5031544;28;20196;-78
2021/09/11 00:07:22;;;;;;;5.03;3.75;;;16.70;60.90;;;16.49;45.27;95058.25;5031263;28;20610;-78
2021/09/11 00:09:49;;;;;;;4.72;3.13;;;16.70;60.90;;;16.46;45.12;95050.75;5031296;28;20665;-78
2021/09/11 00:12:16;;;;;;;7.82;3.65;;;16.60;60.80;;;16.42;44.91;95049.59;5014597;28;20258;-78
2021/09/11 00:14:43;;;;;;;5.82;3.80;;;16.70;60.90;;;16.41;45.01;95050.63;5030855;28;20661;-78
2021/09/11 00:17:11;;;;;;;4.55;3.30;;;16.60;60.80;;;16.37;45.07;95044.97;5031269;28;20724;-78
2021/09/11 00:19:38;;;;;;;6.70;3.95;;;16.60;60.80;;;16.34;45.25;95048.03;5030891;28;20579;-78
2021/09/11 00:22:05;;;;;;;5.63;3.88;;;16.50;60.70;;;16.33;45.14;95049.91;5021260;28;20220;-78
2021/09/11 00:24:32;;;;;;;6.18;3.67;;;16.50;60.70;;;16.27;45.63;95044.66;5014960;28;20697;-77
2021/09/11 00:26:59;;;;;;;6.07;3.22;;;16.50;60.70;;;16.23;45.65;95043.53;5025515;28;20216;-78
2021/09/11 00:29:27;;;;;;;5.15;3.55;;;16.50;60.70;;;16.19;45.61;95048.44;5014171;28;20203;-78
2021/09/11 00:31:54;;;;;;;5.95;3.80;;;16.50;61.00;;;16.15;45.76;95048.09;5019471;28;20221;-78
2021/09/11 00:34:21;;;;;;;5.78;3.50;;;16.40;61.00;;;16.13;45.78;95050.13;5011378;28;20200;-78
2021/09/11 00:36:49;;;;;;;6.75;3.90;;;16.40;61.10;;;16.11;46.02;95048.75;5002689;28;20748;-77
2021/09/11 00:39:17;;;;;;;4.03;3.33;;;16.30;61.10;;;16.09;45.68;95043.69;5014710;28;20200;-78
2021/09/11 00:41:44;;;;;;;5.82;3.70;;;16.30;62.10;;;16.08;45.90;95047.34;5030888;28;20326;-78
2021/09/11 00:44:11;;;;;;;4.10;3.17;;;16.30;61.20;;;16.06;45.55;95041.47;5030942;28;20196;-78
2021/09/11 00:46:38;;;;;;;4.25;3.65;;;16.30;61.10;;;16.03;45.71;95039.28;5028986;28;20647;-78
2021/09/11 00:49:05;;;;;;;4.85;3.67;;;16.20;61.00;;;15.99;45.63;95038.09;5014683;28;20192;-78
2021/09/11 00:51:33;;;;;;;4.90;3.42;;;16.20;61.30;;;15.97;45.75;95034.88;5031124;28;20251;-78
2021/09/11 00:54:02;;;;;;;6.38;3.63;;;16.20;61.40;;;15.91;45.99;95030.50;5030971;28;20184;-78
2021/09/11 00:56:31;;;;;;;4.40;3.65;;;16.20;61.40;;;15.93;45.86;95034.53;5018951;28;20228;-78
2021/09/11 00:59:02;;;;;;;4.60;3.63;;;16.10;61.30;;;15.92;46.22;95038.19;5011538;28;20235;-78
2021/09/11 01:01:29;;;;;;;12.07;3.60;;;16.10;61.70;;;15.91;45.96;95041.88;5011200;28;20221;-78
2021/09/11 01:03:57;;;;;;;4.30;3.60;;;16.10;61.70;;;15.87;46.04;95035.41;5011105;28;20201;-78
2021/09/11 01:06:25;;;;;;;4.93;3.70;;;16.10;61.40;;;15.89;46.00;95038.63;4997547;28;20267;-78
2021/09/11 01:08:53;;;;;;;4.88;3.45;;;16.10;61.50;;;15.87;46.05;95035.41;5011057;28;20205;-78
2021/09/11 01:11:20;;;;;;;5.43;3.55;;;16.10;61.50;;;15.87;46.08;95035.41;5011004;28;20240;-78
2021/09/11 01:13:48;;;;;;;5.78;3.65;;;16.00;61.50;;;15.81;45.95;95031.78;4994780;28;20299;-77
2021/09/11 01:16:15;;;;;;;4.18;3.35;;;16.00;61.60;;;15.84;46.11;95033.19;4997750;28;20311;-78
2021/09/11 01:18:44;;;;;;;5.30;3.92;;;16.10;61.80;;;15.84;46.19;95033.19;5007403;28;20230;-78
2021/09/11 01:21:11;;;;;;;5.05;3.60;;;16.00;61.70;;;15.83;46.27;95040.34;5017879;28;20219;-78
2021/09/11 01:23:42;;;;;;;5.20;3.40;;;16.00;61.80;;;15.81;46.40;95034.41;5034428;28;20200;-78
2021/09/11 01:26:13;;;;;;;5.28;3.72;;;16.00;61.80;;;15.83;46.25;95032.41;5016504;28;20302;-78
2021/09/11 01:28:41;;;;;;;8.25;3.55;;;16.00;61.80;;;15.83;46.34;95035.06;5031114;28;20180;-78
2021/09/11 01:31:09;;;;;;;3.83;3.33;;;16.00;61.80;;;15.79;46.38;95040.97;4998541;28;20242;-78
2021/09/11 01:33:36;;;;;;;5.72;3.47;;;16.00;61.90;;;15.74;46.62;95044.28;5030992;28;20196;-78
2021/09/11 01:36:04;;;;;;;7.60;3.35;;;15.90;61.80;;;15.67;46.31;95043.53;5014448;28;20295;-78
2021/09/11 01:38:31;;;;;;;3.88;3.47;;;15.90;61.90;;;15.61;46.54;95037.31;5015066;28;20337;-78
2021/09/11 01:40:58;;;;;;;4.97;3.50;;;16.00;62.10;;;15.61;46.77;95042.59;5014361;28;20575;-78
2021/09/11 01:43:31;;;;;;;4.63;3.50;;;15.80;61.90;;;15.59;46.67;95043.84;5030788;28;20271;-78
2021/09/11 01:45:59;;;;;;;7.60;3.35;;;15.90;62.20;;;15.58;46.47;95042.22;5024077;28;20251;-78
2021/09/11 01:48:27;;;;;;;6.03;3.40;;;15.80;63.00;;;15.57;46.96;95045.91;5032160;28;20225;-78
2021/09/11 01:50:54;;;;;;;3.97;3.47;;;15.80;62.10;;;15.53;46.77;95041.03;5034161;28;20303;-78
2021/09/11 01:53:22;;;;;;;6.90;3.95;;;15.80;62.20;;;15.53;46.85;95045.53;5017454;28;20666;-78
2021/09/11 01:55:49;;;;;;;5.25;3.70;;;15.80;62.20;;;15.51;46.91;95039.63;5017242;28;20274;-78
2021/09/11 01:58:16;;;;;;;4.93;3.42;;;15.70;62.20;;;15.52;46.80;95043.91;5033850;28;20216;-78
2021/09/11 02:00:44;;;;;;;5.45;3.60;;;15.70;62.20;;;15.51;47.03;95047.56;5017541;28;20224;-78
2021/09/11 02:03:12;;;;;;;5.88;3.85;;;15.70;62.30;;;15.50;47.14;95043.31;5017765;28;20232;-78
2021/09/11 02:05:39;;;;;;;4.43;3.53;;;15.70;62.30;;;15.51;47.01;95044.91;5031336;28;20228;-78
2021/09/11 02:08:07;;;;;;;5.70;3.80;;;15.70;62.40;;;15.49;47.19;95039.88;5014096;28;20295;-78
2021/09/11 02:10:35;;;;;;;5.90;3.35;;;15.70;62.50;;;15.50;47.31;95045.94;4997448;28;20271;-77
2021/09/11 02:13:02;;;;;;;5.78;4.05;;;15.70;62.60;;;15.49;47.19;95042.50;5030134;28;20274;-78
2021/09/11 02:15:30;;;;;;;4.65;3.80;;;15.70;62.60;;;15.47;47.27;95036.63;5025055;28;20220;-78
2021/09/11 02:17:57;;;;;;;3.95;3.53;;;15.70;62.60;;;15.48;47.13;95037.44;5017222;28;20220;-78
2021/09/11 02:20:24;;;;;;;4.45;3.60;;;15.60;63.40;;;15.45;47.38;95038.69;5017212;28;20310;-78
2021/09/11 02:22:52;;;;;;;6.47;3.83;;;15.60;62.70;;;15.46;47.43;95037.66;5017012;28;20200;-78
2021/09/11 02:25:20;;;;;;;4.72;3.55;;;15.60;62.80;;;15.44;47.45;95041.53;5032619;28;20215;-78
2021/09/11 02:27:47;;;;;;;5.68;4.05;;;15.70;62.80;;;15.43;47.38;95037.28;5016989;28;20808;-78
2021/09/11 02:30:14;;;;;;;4.05;3.65;;;15.70;62.80;;;15.42;47.68;95038.31;5032927;28;20270;-79
2021/09/11 02:32:41;;;;;;;6.25;4.10;;;15.60;62.70;;;15.37;47.71;95033.69;5033550;28;20804;-78
2021/09/11 02:35:09;;;;;;;7.20;3.95;;;15.60;63.00;;;15.32;47.65;95034.34;5017444;28;20280;-78
2021/09/11 02:37:37;;;;;;;5.45;4.00;;;15.60;63.00;;;15.33;47.75;95040.41;5013090;28;20274;-78
2021/09/11 02:40:05;;;;;;;5.13;3.63;;;15.60;63.00;;;15.32;47.78;95039.63;5013344;28;20204;-78
2021/09/11 02:42:32;;;;;;;4.75;3.85;;;15.50;62.80;;;15.30;47.58;95040.88;5013416;28;20208;-78
2021/09/11 02:44:59;;;;;;;5.72;3.58;;;15.50;62.80;;;15.27;47.87;95044.75;5013864;28;20284;-78
2021/09/11 02:47:27;;;;;;;5.30;3.95;;;15.60;63.00;;;15.28;48.15;95046.38;5013298;28;20295;-78
2021/09/11 02:49:55;;;;;;;4.88;3.63;;;15.50;63.00;;;15.25;47.85;95038.09;5013111;28;20224;-78
2021/09/11 02:52:22;;;;;;;6.03;3.72;;;15.50;63.00;;;15.25;47.62;95035.44;5013222;28;20203;-78
2021/09/11 02:54:50;;;;;;;5.40;3.95;;;15.60;63.10;;;15.22;47.73;95052.50;4997146;28;20613;-78
2021/09/11 02:57:17;;;;;;;6.35;3.72;;;15.50;63.10;;;15.19;48.03;95037.91;5030121;28;20228;-78
2021/09/11 02:59:44;;;;;;;5.38;4.30;;;15.40;63.10;;;15.17;48.30;95044.44;5018040;28;20181;-78
2021/09/11 03:02:11;;;;;;;5.55;3.70;;;15.40;63.30;;;15.17;48.54;95055.00;5012832;28;20303;-78
2021/09/11 03:04:39;;;;;;;5.18;3.78;;;15.40;63.30;;;15.11;48.44;95048.78;5029177;28;20223;-78
2021/09/11 03:07:06;;;;;;;6.50;4.07;;;15.40;63.40;;;15.12;48.22;95047.72;5013741;28;20694;-78
2021/09/11 03:09:33;;;;;;;5.40;3.80;;;15.40;63.40;;;15.10;48.28;95055.06;4996570;28;20193;-78
2021/09/11 03:12:00;;;;;;;5.15;3.65;;;15.50;63.60;;;15.08;48.26;95056.31;5012918;28;20252;-78
2021/09/11 03:14:28;;;;;;;5.22;3.70;;;15.30;63.30;;;15.03;48.22;95062.25;5012528;28;20295;-78
2021/09/11 03:16:55;;;;;;;6.32;3.70;;;15.30;63.20;;;14.98;48.14;95059.44;5011100;28;20304;-78
2021/09/11 03:19:22;;;;;;;5.55;3.92;;;15.30;63.40;;;14.94;48.30;95064.34;5013066;28;20211;-78
2021/09/11 03:21:50;;;;;;;4.97;3.90;;;15.30;64.30;;;14.86;48.21;95059.31;5012881;28;20312;-78
2021/09/11 03:24:17;;;;;;;5.43;3.55;;;15.20;63.20;;;14.83;48.07;95063.22;5012538;28;20564;-78
2021/09/11 03:26:46;;;;;;;5.32;3.65;;;15.20;63.10;;;14.77;48.22;95055.31;5008085;28;20796;-78
2021/09/11 03:29:13;;;;;;;5.15;3.83;;;15.10;63.20;;;14.71;48.44;95055.16;5015811;28;20466;-78
2021/09/11 03:31:40;;;;;;;4.07;3.55;;;15.10;63.30;;;14.66;48.65;95059.44;5032329;28;20212;-78
2021/09/11 03:34:07;;;;;;;5.32;4.00;;;15.10;63.40;;;14.60;48.27;95061.09;5029903;28;20196;-78
2021/09/11 03:36:34;;;;;;;4.68;4.03;;;15.00;63.50;;;14.59;48.79;95059.47;5012403;28;20212;-77
2021/09/11 03:39:02;;;;;;;6.57;4.07;;;15.00;63.70;;;14.54;48.94;95052.19;5012225;28;20216;-78
2021/09/11 03:41:29;;;;;;;6.78;4.10;;;14.90;63.60;;;14.54;48.88;95057.47;5011740;28;20221;-78
2021/09/11 03:43:57;;;;;;;5.28;4.00;;;14.90;63.70;;;14.52;48.81;95059.50;4995769;28;20683;-78
2021/09/11 03:46:24;;;;;;;6.05;3.67;;;14.90;63.80;;;14.52;48.76;95059.50;5011668;28;20659;-78
2021/09/11 03:48:51;;;;;;;5.97;4.05;;;14.90;63.90;;;14.48;48.79;95058.31;5011899;28;20197;-78
2021/09/11 03:51:18;;;;;;;4.25;3.72;;;14.80;63.80;;;14.48;48.74;95057.53;4995719;28;20216;-77
2021/09/11 03:53:45;;;;;;;4.95;3.72;;;14.80;63.80;;;14.42;48.92;95053.91;5013421;28;20271;-78
2021/09/11 03:56:13;;;;;;;8.05;3.90;;;14.70;63.80;;;14.39;49.08;95052.50;4993619;28;20319;-78
2021/09/11 03:58:40;;;;;;;4.88;3.90;;;14.70;63.90;;;14.37;49.10;95053.72;5009784;28;20830;-78
2021/09/11 04:01:08;;;;;;;4.82;3.63;;;14.70;64.80;;;14.34;49.11;95060.25;5010062;28;20220;-78
2021/09/11 04:03:35;;;;;;;5.15;3.78;;;14.70;64.00;;;14.33;49.06;95063.91;5010057;28;20189;-77
2021/09/11 04:06:03;;;;;;;7.95;3.97;;;14.70;64.10;;;14.34;49.24;95064.69;5010037;28;20307;-78
2021/09/11 04:08:31;;;;;;;5.55;3.80;;;14.60;64.10;;;14.34;49.30;95064.69;5010288;28;20255;-77
2021/09/11 04:10:59;;;;;;;4.93;3.92;;;14.60;64.10;;;14.33;49.29;95071.81;5026721;28;20738;-77
2021/09/11 04:13:27;;;;;;;6.40;3.95;;;14.70;64.30;;;14.31;49.23;95067.78;5030983;28;20200;-78
2021/09/11 04:15:54;;;;;;;4.60;3.42;;;14.60;64.20;;;14.30;49.33;95066.94;5014976;28;20216;-78
2021/09/11 04:18:22;;;;;;;9.13;3.80;;;14.60;64.20;;;14.27;49.46;95064.75;5014822;28;20273;-77
2021/09/11 04:20:49;;;;;;;5.72;3.97;;;14.60;64.30;;;14.28;49.60;95069.00;5031389;28;20569;-78
2021/09/11 04:23:17;;;;;;;7.00;4.00;;;14.50;64.30;;;14.29;49.28;95077.72;5030581;28;20265;-78
2021/09/11 04:25:44;;;;;;;4.80;3.67;;;14.50;64.30;;;14.28;49.56;95084.84;5014918;28;20773;-78
2021/09/11 04:28:12;;;;;;;8.68;3.92;;;14.50;64.30;;;14.23;49.41;95082.00;5031616;28;20618;-78
2021/09/11 04:30:39;;;;;;;8.35;4.18;;;14.50;64.30;;;14.23;49.82;95082.81;5031226;28;20212;-78
2021/09/11 04:33:06;;;;;;;5.38;4.38;;;14.50;64.60;;;14.23;50.00;95080.19;5014612;28;20203;-78
2021/09/11 04:35:34;;;;;;;6.95;4.38;;;14.50;64.70;;;14.23;49.90;95085.47;5012253;28;20220;-78
2021/09/11 04:38:01;;;;;;;6.40;4.05;;;14.50;64.60;;;14.25;49.86;95083.41;5011157;28;20232;-78
2021/09/11 04:40:29;;;;;;;5.65;3.78;;;14.50;64.70;;;14.24;49.74;95087.09;5027899;28;20228;-78
2021/09/11 04:42:57;;;;;;;5.53;3.83;;;14.50;64.70;;;14.23;49.78;95090.75;5011702;28;20271;-78
2021/09/11 04:45:25;;;;;;;7.63;3.97;;;14.50;64.70;;;14.20;49.76;95096.41;5011375;28;20220;-78
2021/09/11 04:47:52;;;;;;;4.82;3.70;;;14.50;64.60;;;14.21;49.77;95094.59;5011239;28;20212;-78
2021/09/11 04:50:19;;;;;;;4.85;3.97;;;14.50;64.70;;;14.20;49.67;95093.00;5011372;28;20209;-78
2021/09/11 04:52:46;;;;;;;5.55;4.07;;;14.50;64.90;;;14.21;49.83;95091.97;5011303;28;20200;-78
2021/09/11 04:55:14;;;;;;;6.03;3.90;;;14.50;65.00;;;14.23;50.12;95095.19;5014483;28;20303;-78
2021/09/11 04:57:41;;;;;;;4.78;4.10;;;14.40;65.10;;;14.24;50.06;95095.00;5015070;28;20664;-78
2021/09/11 05:00:10;;;;;;;5.75;4.32;;;14.40;65.20;;;14.27;49.94;95093.78;5014989;28;20203;-78
2021/09/11 05:02:37;;;;;;;4.82;4.13;;;14.50;65.30;;;14.28;50.39;95092.75;5032447;28;20611;-78
2021/09/11 05:05:06;;;;;;;7.25;4.68;;;14.50;65.40;;;14.31;51.08;95100.22;5033088;28;20202;-78
2021/09/11 05:07:33;;;;;;;6.43;4.88;;;14.50;65.70;;;14.35;51.23;95098.78;5018469;28;20211;-78
2021/09/11 05:10:01;;;;;;;4.93;4.38;;;14.50;66.00;;;14.41;51.33;95097.13;5032530;28;20275;-78
2021/09/11 05:12:28;;;;;;;5.50;3.95;;;14.50;66.00;;;14.47;51.07;95095.50;5034713;28;20212;-78
2021/09/11 05:14:55;;;;;;;6.53;4.60;;;14.60;66.00;;;14.51;51.02;95099.31;5034672;28;20188;-78
2021/09/11 05:17:23;;;;;;;6.78;4.28;;;14.60;66.20;;;14.60;51.22;95102.50;5034480;28;20200;-79
2021/09/11 05:19:50;;;;;;;6.43;4.47;;;14.60;66.30;;;14.65;51.06;95102.72;5011502;28;20196;-78
2021/09/11 05:22:17;;;;;;;5.45;4.38;;;14.70;66.30;;;14.69;50.94;95101.28;5032611;28;20219;-78
2021/09/11 05:24:44;;;;;;;5.55;4.10;;;14.80;66.40;;;14.76;51.35;95111.78;5017542;28;20234;-77
2021/09/11 05:27:12;;;;;;;6.82;4.18;;;14.80;66.70;;;14.81;51.49;95101.41;5015000;28;20323;-78
2021/09/11 05:29:39;;;;;;;6.00;4.63;;;14.80;66.90;;;14.86;51.56;95110.28;5016061;28;20188;-78
2021/09/11 05:32:07;;;;;;;6.40;4.60;;;14.90;66.80;;;14.94;51.56;95108.41;5017960;28;20690;-78
2021/09/11 05:34:34;;;;;;;5.75;4.25;;;14.90;66.90;;;15.03;51.30;95109.78;5034596;28;20200;-78
2021/09/11 05:37:01;;;;;;;6.90;4.72;;;15.00;67.00;;;15.12;51.54;95107.69;5034089;28;20258;-78
2021/09/11 05:39:29;;;;;;;5.13;4.10;;;15.00;67.10;;;15.18;51.64;95106.81;5031408;28;20224;-79
2021/09/11 05:41:57;;;;;;;5.25;4.10;;;15.10;67.30;;;15.29;51.77;95110.59;5034225;28;20319;-78
2021/09/11 05:44:24;;;;;;;8.15;4.43;;;15.20;67.20;;;15.36;51.89;95106.88;5017833;28;20195;-77
2021/09/11 05:46:51;;;;;;;6.55;4.72;;;15.30;67.20;;;15.45;51.67;95112.72;5034363;28;20243;-78
2021/09/11 05:49:19;;;;;;;5.03;4.43;;;15.40;67.20;;;15.53;51.50;95109.75;5031972;28;20275;-78
2021/09/11 05:51:46;;;;;;;5.88;4.47;;;15.40;67.20;;;15.65;51.41;95101.13;5015736;28;20278;-78
2021/09/11 05:54:13;;;;;;;4.90;4.40;;;15.50;67.50;;;15.74;51.35;95099.81;5033230;28;20206;-78
2021/09/11 05:56:40;;;;;;;4.72;4.05;;;15.50;67.40;;;15.83;51.59;95100.34;5033853;28;20224;-78
2021/09/11 05:59:08;;;;;;;5.50;4.40;;;15.60;67.30;;;15.90;51.33;95100.28;5014610;28;20215;-77
2021/09/11 06:01:35;;;;;;;5.40;3.95;;;15.70;67.30;;;15.96;51.56;95094.91;5030454;28;20243;-78
2021/09/11 06:04:03;;;;;;;4.72;4.03;;;15.80;67.40;;;16.05;51.56;95106.03;5021972;28;20201;-78
2021/09/11 06:06:30;;;;;;;7.75;5.05;;;15.80;67.60;;;16.13;51.88;95102.25;4998272;28;20251;-78
2021/09/11 06:08:58;;;;;;;5.18;4.40;;;15.90;67.80;;;16.22;51.69;95093.00;5014501;28;20203;-77
2021/09/11 06:11:25;;;;;;;5.25;4.13;;;16.10;67.80;;;16.32;51.56;95098.56;5024419;28;20666;-78
2021/09/11 06:13:52;;;;;;;4.78;4.25;;;16.10;67.80;;;16.43;51.59;95098.81;5011848;28;20196;-78
2021/09/11 06:16:19;;;;;;;6.00;4.68;;;16.20;67.80;;;16.54;51.41;95103.38;5023273;28;20217;-79
2021/09/11 06:18:47;;;;;;;4.88;4.03;;;16.30;67.70;;;16.69;51.06;95110.13;5014216;28;20221;-78
2021/09/11 06:21:14;;;;;;;5.10;4.45;;;16.40;67.60;;;16.77;51.70;95097.34;5013254;28;20220;-79
2021/09/11 06:23:41;;;;;;;9.48;4.97;;;16.40;67.50;;;16.92;51.08;95106.75;4997368;28;20651;-80
2021/09/11 06:26:09;;;;;;;8.23;5.22;;;16.60;67.60;;;17.04;51.26;95102.28;4997294;28;20567;-79
2021/09/11 06:28:36;;;;;;;5.40;4.38;;;16.60;67.40;;;17.16;50.96;95107.59;5023658;28;20201;-79
2021/09/11 06:31:03;;;;;;;6.13;4.60;;;16.80;67.40;;;17.28;50.65;95105.78;5014374;28;20231;-79
2021/09/11 06:33:30;;;;;;;7.70;5.25;;;16.80;67.30;;;17.41;50.71;95107.41;4996953;28;20205;-79
2021/09/11 06:35:57;;;;;;;5.20;4.70;;;17.00;67.30;;;17.54;50.91;95105.56;5019469;28;20255;-79
2021/09/11 06:38:25;;;;;;;12.07;5.20;;;17.10;67.60;;;17.66;50.67;95098.41;5015698;28;20251;-80
2021/09/11 06:40:52;;;;;;;5.68;5.07;;;17.20;67.60;;;17.79;50.96;95093.91;5000951;28;20236;-79
2021/09/11 06:43:19;;;;;;;6.25;5.20;;;17.30;67.60;;;17.91;50.97;95100.78;5010710;28;20250;-78
2021/09/11 06:45:46;;;;;;;8.65;5.88;;;17.50;67.60;;;18.05;51.16;95097.91;5032907;28;20208;-79
2021/09/11 06:48:13;;;;;;;10.82;5.90;;;17.50;67.70;;;18.16;50.66;95094.47;5032930;28;20735;-78
2021/09/11 06:50:41;;;;;;;7.28;5.60;;;17.60;67.60;;;18.30;51.07;95091.53;5003052;28;20220;-78
2021/09/11 06:53:08;;;;;;;10.05;5.40;;;17.80;67.70;;;18.42;50.64;95094.13;5016800;28;20211;-78
2021/09/11 06:55:35;;;;;;;5.68;4.80;;;17.90;67.80;;;18.54;50.74;95097.53;5016617;28;20215;-78
2021/09/11 06:58:02;;;;;;;7.68;5.45;;;18.00;67.80;;;18.65;50.79;95090.56;5016389;28;20188;-76
2021/09/11 07:00:29;;;;;;;6.18;4.93;;;18.10;67.80;;;18.77;51.00;95088.66;5012236;28;20228;-77
2021/09/11 07:02:57;;;;;;;9.02;5.38;;;18.20;67.70;;;18.92;50.55;95095.31;5024102;28;20215;-78
2021/09/11 07:05:25;;;;;;;8.43;5.35;;;18.40;67.70;;;19.03;50.66;95089.16;5012897;28;20209;-77
2021/09/11 07:07:52;;;;;;;5.70;5.07;;;18.50;67.60;;;19.15;50.25;95092.53;5045418;28;20235;-78
2021/09/11 07:10:20;;;;;;;7.60;5.20;;;18.60;67.60;;;19.30;49.98;95096.50;5012882;28;20687;-78
2021/09/11 07:12:47;;;;;;;8.88;5.03;;;18.70;67.50;;;19.41;50.34;95092.94;5012626;28;20295;-78
2021/09/11 07:15:14;;;;;;;6.93;5.32;;;18.90;67.60;;;19.55;50.06;95100.56;5011738;28;20705;-77
2021/09/11 07:17:42;;;;;;;5.72;5.10;;;19.00;67.50;;;19.66;49.77;95102.31;5010971;28;20284;-77
2021/09/11 07:20:10;;;;;;;6.97;5.10;;;19.00;67.40;;;19.79;49.87;95104.63;5012576;28;20224;-77
2021/09/11 07:22:37;;;;;;;7.22;4.70;;;19.20;67.60;;;19.92;49.69;95097.38;5011865;28;20659;-77
2021/09/11 07:25:04;;;;;;;5.40;4.57;;;19.30;67.50;;;20.07;49.79;95092.25;5012390;28;20205;-77
2021/09/11 07:27:32;;;;;;;5.05;4.55;;;19.40;67.20;;;20.25;49.91;95101.00;5012387;28;20195;-77
2021/09/11 07:29:59;;;;;;;6.07;4.78;;;19.70;67.30;;;20.38;49.46;95097.16;4996035;28;20235;-78
2021/09/11 07:32:26;;;;;;;6.15;4.93;;;19.70;66.90;;;20.59;49.45;95093.66;4996028;28;20200;-79
2021/09/11 07:34:54;;;;;;;8.00;5.15;;;19.90;66.90;;;20.78;48.85;95096.00;5015032;28;20224;-79
2021/09/11 07:37:22;;;;;;;6.00;5.40;;;20.00;66.80;;;20.94;49.16;95096.97;5012292;28;20746;-79
2021/09/11 07:39:49;;;;;;;6.03;4.90;;;20.20;66.90;;;21.11;48.96;95102.97;5027959;28;20724;-78
2021/09/11 07:42:17;;;;;;;6.55;5.57;;;20.30;66.90;;;21.26;48.96;95104.97;4995912;28;20768;-79
2021/09/11 07:44:45;;;;;;;6.75;5.68;;;20.50;66.80;;;21.43;48.63;95104.03;4995923;28;20651;-79
2021/09/11 07:47:12;;;;;;;6.53;5.63;;;20.70;66.90;;;21.58;48.88;95092.66;4995776;28;20213;-79
2021/09/11 07:49:40;;;;;;;7.45;6.20;;;20.80;66.60;;;21.73;48.83;95103.47;5028178;28;20196;-78
2021/09/11 07:52:07;;;;;;;6.40;5.75;;;21.00;66.70;;;21.88;48.56;95108.06;5028085;28;20204;-77
2021/09/11 07:54:35;;;;;;;7.88;5.95;;;21.10;66.80;;;22.02;48.36;95113.78;5023626;28;20239;-77
2021/09/11 07:57:03;;;;;;;5.95;5.35;;;21.30;66.80;;;22.15;48.60;95125.06;4995717;28;20303;-80
2021/09/11 07:59:31;;;;;;;8.68;6.30;;;21.40;66.50;;;22.21;48.14;95107.97;5020133;28;20216;-80
2021/09/11 08:01:58;;;;;;;6.45;5.85;;;21.50;66.30;;;22.34;48.17;95107.50;5015433;28;20212;-80
2021/09/11 08:04:26;;;;;;;8.68;6.15;;;21.70;66.40;;;22.47;48.39;95111.59;5015383;28;20196;-80
2021/09/11 08:06:53;;;;;;;8.85;6.75;;;21.80;66.30;;;22.57;47.93;95113.50;5015251;28;20641;-79
2021/09/11 08:09:20;;;;;;;7.50;6.53;;;21.90;66.20;;;22.65;47.91;95107.63;5013317;28;20284;-78
2021/09/11 08:11:48;;;;;;;8.65;6.53;;;22.00;66.20;;;22.80;48.40;95116.75;4996650;28;20208;-79
2021/09/11 08:14:15;;;;;;;8.25;5.95;;;22.10;66.40;;;22.89;48.18;95117.84;5011382;28;20205;-79
2021/09/11 08:16:42;;;;;;;7.75;6.85;;;22.20;66.20;;;22.99;47.83;95120.53;5011860;28;20214;-78
2021/09/11 08:19:11;;;;;;;7.43;6.65;;;22.30;66.10;;;23.11;48.06;95124.84;5014272;28;20321;-78
2021/09/11 08:21:38;;;;;;;7.88;6.50;;;22.50;66.10;;;23.22;48.26;95115.78;5015031;28;20246;-78
2021/09/11 08:24:05;;;;;;;7.85;7.05;;;22.60;66.30;;;23.33;48.19;95121.94;5015067;28;20222;-79
2021/09/11 08:26:32;;;;;;;7.57;6.65;;;22.60;66.30;;;23.45;48.58;95121.69;5014830;28;20236;-78
2021/09/11 08:28:59;;;;;;;9.25;8.00;;;22.80;66.50;;;23.57;48.29;95121.41;5028991;28;20227;-81
2021/09/11 08:31:27;;;;;;;9.30;7.13;;;22.80;66.50;;;23.63;48.59;95121.13;5030914;28;20740;-78
2021/09/11 08:33:58;;;;;;;8.55;7.65;;;23.00;66.70;;;23.76;48.38;95127.78;5031152;28;20200;-80
2021/09/11 08:36:25;;;;;;;8.85;7.25;;;23.00;66.40;;;23.86;48.11;95120.84;5031666;28;20306;-79
2021/09/11 08:38:53;;;;;;;8.00;7.20;;;23.10;66.30;;;23.96;48.14;95128.88;5013779;28;20275;-78
2021/09/11 08:41:20;;;;;;;8.43;7.15;;;23.30;66.10;;;24.05;47.78;95123.78;5028443;28;20311;-79
2021/09/11 08:43:47;;;;;;;8.57;7.03;;;23.30;66.10;;;24.13;47.89;95123.19;5030492;28;20662;-79
2021/09/11 08:46:14;;;;;;;9.55;7.75;;;23.40;66.10;;;24.22;47.85;95126.13;5030841;28;20295;-79
2021/09/11 08:48:42;;;;;;;8.15;7.25;;;23.50;66.30;;;24.29;47.93;95126.63;5028175;28;20224;-80
2021/09/11 08:51:09;;;;;;;7.57;6.85;;;23.60;66.30;;;24.37;47.11;95126.06;5011359;28;20299;-80
2021/09/11 08:53:37;;;;;;;8.27;6.95;;;23.70;67.30;;;24.47;47.44;95135.94;5010446;28;20658;-79
2021/09/11 08:56:05;;;;;;;12.05;7.50;;;23.80;66.40;;;24.53;47.86;95124.13;4995139;28;20220;-79
2021/09/11 08:58:32;;;;;;;8.45;6.70;;;23.80;66.50;;;24.59;47.87;95136.44;4995422;28;20249;-79
2021/09/11 09:01:01;;;;;;;10.20;7.90;;;23.90;66.40;;;24.66;47.39;95121.94;5011089;28;20751;-79
2021/09/11 09:03:42;;;;;;;9.20;7.25;;;24.00;66.10;;;24.73;47.25;95133.16;5011291;28;20302;-79
2021/09/11 09:06:21;;;;;;;8.18;7.20;;;24.00;66.10;;;24.78;47.64;95135.84;5014866;28;20223;-79
2021/09/11 09:09:11;;;;;;;7.70;6.90;;;24.10;66.30;;;24.86;47.47;95132.56;5025074;28;20188;-79
2021/09/11 09:11:42;;;;;;;10.52;7.30;;;24.20;66.30;;;24.93;47.36;95130.38;4996301;28;20226;-78
2021/09/11 09:14:18;;;;;;;8.50;7.53;;;24.30;66.50;;;25.01;47.49;95130.88;5013809;28;20581;-79
2021/09/11 09:16:50;;;;;;;8.48;7.68;;;24.30;66.40;;;25.11;47.94;95138.88;5029388;28;20487;-79
2021/09/11 09:19:23;;;;;;;9.00;8.18;;;24.40;66.50;;;25.16;47.48;95128.09;5014782;28;20309;-79
2021/09/11 09:22:00;;;;;;;8.50;7.53;;;24.50;66.10;;;25.23;47.10;95128.59;5021443;28;20211;-79
2021/09/11 09:24:29;;;;;;;8.50;7.63;;;24.50;66.00;;;25.30;47.19;95128.25;5010556;28;20568;-79
2021/09/11 09:27:03;;;;;;;9.82;7.28;;;24.60;66.10;;;25.39;47.22;95128.50;5008711;28;20234;-78
2021/09/11 09:29:36;;;;;;;8.52;7.60;;;24.70;66.00;;;25.46;47.21;95126.28;5026832;28;20557;-78
2021/09/11 09:32:04;;;;;;;9.48;7.97;;;24.80;66.30;;;25.53;47.19;95123.28;5035456;28;20219;-79
2021/09/11 09:34:41;;;;;;;24.17;7.93;;;24.80;66.00;;;25.58;47.14;95117.84;5014204;28;20230;-79
2021/09/11 09:37:13;;;;;;;11.05;8.25;;;24.90;65.90;;;25.64;47.33;95118.63;5007023;28;20226;-79
2021/09/11 09:39:48;;;;;;;8.63;7.25;;;24.90;65.80;;;25.70;46.98;95126.34;5013972;28;20226;-79
2021/09/11 09:42:18;;;;;;;9.80;8.43;;;25.00;65.80;;;25.77;46.79;95138.66;5017885;28;20763;-80
2021/09/11 09:44:51;;;;;;;26.45;9.68;;;25.10;65.50;;;25.79;46.24;95121.16;5014119;28;20202;-79
2021/09/11 09:47:24;;;;;;;9.73;8.70;;;25.10;65.40;;;25.82;46.91;95117.13;5017490;28;20191;-79
2021/09/11 09:50:11;;;;;;;9.88;8.93;;;25.20;65.60;;;25.88;46.85;95129.41;5021850;28;20193;-79
2021/09/11 09:52:41;;;;;;;8.80;7.93;;;25.30;65.30;;;25.92;46.79;95125.06;5014489;28;20199;-80
2021/09/11 09:55:13;;;;;;;9.68;8.50;;;25.30;65.40;;;25.97;46.08;95126.91;5028936;28;20231;-80
2021/09/11 09:57:42;;;;;;;9.05;8.13;;;25.30;65.00;;;25.98;46.17;95132.00;5016284;28;20238;-80
2021/09/11 10:00:10;;;;;;;8.30;7.10;;;25.40;64.80;;;26.01;46.42;95123.38;5008148;28;20236;-80
2021/09/11 10:02:39;;;;;;;9.43;8.40;;;25.40;65.20;;;26.05;46.35;95128.97;5017168;28;20226;-80
2021/09/11 10:05:11;;;;;;;8.30;7.28;;;25.50;64.90;;;26.10;46.48;95123.56;5017416;28;20622;-80
2021/09/11 10:07:52;;;;;;;10.20;7.93;;;25.50;65.10;;;26.13;46.01;95130.25;5019605;28;20252;-81
2021/09/11 10:10:26;;;;;;;12.13;10.85;;;25.60;64.80;;;26.19;46.47;95129.13;5013256;28;20696;-80
2021/09/11 10:13:08;;;;;;;9.48;8.38;;;25.60;65.10;;;26.24;46.61;95115.63;5014283;28;20184;-80
2021/09/11 10:15:48;;;;;;;9.77;8.13;;;25.70;65.10;;;26.34;46.23;95118.19;5012250;28;20216;-81
2021/09/11 10:18:30;;;;;;;17.70;13.07;;;25.70;65.00;;;26.43;46.30;95115.66;4999587;28;20226;-81
2021/09/11 10:21:37;;;;;;;12.88;10.15;;;25.80;65.10;;;26.52;46.54;95115.81;5016600;28;20247;-81
2021/09/11 10:24:11;;;;;;;10.65;9.55;;;25.80;65.10;;;26.62;46.21;95109.50;5031929;28;20189;-81